sensor_id;sensor_type;location;lat;lon;timestamp;P1;durP1;ratioP1;P2;durP2;ratioP2
13793;SDS011;31160;49.500;7.772;2023-05-14T00:00:27;7.67;;;3.00;;
13793;SDS011;31160;49.500;7.772;2023-05-14T00:02:54;3.70;;;3.03;;
13793;SDS011;31160;49.500;7.772;2023-05-14T00:05:21;3.13;;;2.60;;
13793;SDS011;31160;49.500;7.772;2023-05-14T00:07:48;3.03;;;2.70;;
13793;SDS011;31160;49.500;7.772;2023-05-14T00:10:15;4.73;;;3.27;;
13793;SDS011;31160;49.500;7.772;2023-05-14T00:12:44;4.63;;;3.67;;
13793;SDS011;31160;49.500;7.772;2023-05-14T00:15:10;5.77;;;3.20;;
13793;SDS011;31160;49.500;7.772;2023-05-14T00:17:37;7.13;;;3.33;;
13793;SDS011;31160;49.500;7.772;2023-05-14T00:20:04;4.70;;;3.00;;
13793;SDS011;31160;49.500;7.772;2023-05-14T00:22:36;3.30;;;2.93;;
13793;SDS011;31160;49.500;7.772;2023-05-14T00:25:05;4.40;;;3.10;;
13793;SDS011;31160;49.500;7.772;2023-05-14T00:27:33;3.80;;;2.93;;
13793;SDS011;31160;49.500;7.772;2023-05-14T00:30:00;9.00;;;2.57;;
13793;SDS011;31160;49.500;7.772;2023-05-14T00:32:27;3.00;;;2.40;;
13793;SDS011;31160;49.500;7.772;2023-05-14T00:34:54;3.47;;;2.80;;
13793;SDS011;31160;49.500;7.772;2023-05-14T00:37:21;3.60;;;2.63;;
13793;SDS011;31160;49.500;7.772;2023-05-14T00:39:48;4.67;;;2.67;;
13793;SDS011;31160;49.500;7.772;2023-05-14T00:42:14;3.40;;;2.40;;
13793;SDS011;31160;49.500;7.772;2023-05-14T00:44:41;3.10;;;2.40;;
13793;SDS011;31160;49.500;7.772;2023-05-14T00:47:08;3.67;;;2.37;;
13793;SDS011;31160;49.500;7.772;2023-05-14T00:49:35;5.50;;;2.63;;
13793;SDS011;31160;49.500;7.772;2023-05-14T00:52:02;4.70;;;2.77;;
13793;SDS011;31160;49.500;7.772;2023-05-14T00:54:29;7.37;;;3.27;;
13793;SDS011;31160;49.500;7.772;2023-05-14T00:56:55;3.47;;;3.07;;
13793;SDS011;31160;49.500;7.772;2023-05-14T00:59:22;7.13;;;3.00;;
13793;SDS011;31160;49.500;7.772;2023-05-14T01:01:49;3.93;;;2.97;;
13793;SDS011;31160;49.500;7.772;2023-05-14T01:04:16;4.03;;;3.00;;
13793;SDS011;31160;49.500;7.772;2023-05-14T01:09:35;3.10;;;2.80;;
13793;SDS011;31160;49.500;7.772;2023-05-14T01:12:24;4.67;;;2.63;;
13793;SDS011;31160;49.500;7.772;2023-05-14T01:17:28;3.90;;;2.50;;
13793;SDS011;31160;49.500;7.772;2023-05-14T01:19:58;5.50;;;2.87;;
13793;SDS011;31160;49.500;7.772;2023-05-14T01:22:25;3.17;;;2.77;;
13793;SDS011;31160;49.500;7.772;2023-05-14T01:24:52;3.10;;;2.80;;
13793;SDS011;31160;49.500;7.772;2023-05-14T01:27:34;2.73;;;2.43;;
13793;SDS011;31160;49.500;7.772;2023-05-14T01:30:21;3.43;;;3.10;;
13793;SDS011;31160;49.500;7.772;2023-05-14T01:32:53;5.87;;;2.80;;
13793;SDS011;31160;49.500;7.772;2023-05-14T01:35:24;5.27;;;2.67;;
13793;SDS011;31160;49.500;7.772;2023-05-14T01:37:56;4.67;;;2.80;;
13793;SDS011;31160;49.500;7.772;2023-05-14T01:40:28;4.80;;;2.77;;
13793;SDS011;31160;49.500;7.772;2023-05-14T01:42:56;5.23;;;2.90;;
13793;SDS011;31160;49.500;7.772;2023-05-14T01:45:23;3.53;;;3.07;;
13793;SDS011;31160;49.500;7.772;2023-05-14T01:47:50;4.57;;;2.77;;
13793;SDS011;31160;49.500;7.772;2023-05-14T01:50:17;3.70;;;2.80;;
13793;SDS011;31160;49.500;7.772;2023-05-14T01:52:44;6.37;;;2.67;;
13793;SDS011;31160;49.500;7.772;2023-05-14T01:55:13;3.77;;;2.97;;
13793;SDS011;31160;49.500;7.772;2023-05-14T01:57:40;3.97;;;2.50;;
13793;SDS011;31160;49.500;7.772;2023-05-14T02:00:07;5.97;;;2.60;;
13793;SDS011;31160;49.500;7.772;2023-05-14T02:02:40;3.50;;;2.80;;
13793;SDS011;31160;49.500;7.772;2023-05-14T02:05:10;5.43;;;2.87;;
13793;SDS011;31160;49.500;7.772;2023-05-14T02:07:37;3.70;;;2.80;;
13793;SDS011;31160;49.500;7.772;2023-05-14T02:10:04;2.87;;;2.47;;
13793;SDS011;31160;49.500;7.772;2023-05-14T02:12:31;3.07;;;2.50;;
13793;SDS011;31160;49.500;7.772;2023-05-14T02:14:58;3.40;;;2.70;;
13793;SDS011;31160;49.500;7.772;2023-05-14T02:17:26;4.97;;;2.73;;
13793;SDS011;31160;49.500;7.772;2023-05-14T02:19:53;4.50;;;2.87;;
13793;SDS011;31160;49.500;7.772;2023-05-14T02:22:19;5.30;;;2.77;;
13793;SDS011;31160;49.500;7.772;2023-05-14T02:24:46;4.77;;;2.90;;
13793;SDS011;31160;49.500;7.772;2023-05-14T02:27:15;3.53;;;2.70;;
13793;SDS011;31160;49.500;7.772;2023-05-14T02:29:42;5.27;;;3.40;;
13793;SDS011;31160;49.500;7.772;2023-05-14T02:32:08;3.87;;;3.00;;
13793;SDS011;31160;49.500;7.772;2023-05-14T02:34:35;3.50;;;2.70;;
13793;SDS011;31160;49.500;7.772;2023-05-14T02:37:02;2.97;;;2.50;;
13793;SDS011;31160;49.500;7.772;2023-05-14T02:39:29;3.80;;;2.80;;
13793;SDS011;31160;49.500;7.772;2023-05-14T02:41:56;3.13;;;2.70;;
13793;SDS011;31160;49.500;7.772;2023-05-14T02:44:23;3.20;;;2.70;;
13793;SDS011;31160;49.500;7.772;2023-05-14T02:46:50;2.70;;;2.50;;
13793;SDS011;31160;49.500;7.772;2023-05-14T02:49:17;6.63;;;2.90;;
13793;SDS011;31160;49.500;7.772;2023-05-14T02:51:44;5.10;;;3.07;;
13793;SDS011;31160;49.500;7.772;2023-05-14T02:54:10;4.63;;;2.57;;
13793;SDS011;31160;49.500;7.772;2023-05-14T02:56:37;2.63;;;2.27;;
13793;SDS011;31160;49.500;7.772;2023-05-14T02:59:04;3.57;;;2.90;;
13793;SDS011;31160;49.500;7.772;2023-05-14T03:01:31;5.90;;;3.10;;
13793;SDS011;31160;49.500;7.772;2023-05-14T03:03:58;3.47;;;2.73;;
13793;SDS011;31160;49.500;7.772;2023-05-14T03:06:25;2.83;;;2.53;;
13793;SDS011;31160;49.500;7.772;2023-05-14T03:08:51;3.07;;;2.77;;
13793;SDS011;31160;49.500;7.772;2023-05-14T03:11:18;4.70;;;2.80;;
13793;SDS011;31160;49.500;7.772;2023-05-14T03:13:45;3.60;;;2.40;;
13793;SDS011;31160;49.500;7.772;2023-05-14T03:16:12;5.70;;;3.00;;
13793;SDS011;31160;49.500;7.772;2023-05-14T03:18:39;3.47;;;2.50;;
13793;SDS011;31160;49.500;7.772;2023-05-14T03:21:07;2.80;;;2.47;;
13793;SDS011;31160;49.500;7.772;2023-05-14T03:23:34;3.57;;;2.60;;
13793;SDS011;31160;49.500;7.772;2023-05-14T03:26:01;4.13;;;3.20;;
13793;SDS011;31160;49.500;7.772;2023-05-14T03:28:27;3.70;;;2.67;;
13793;SDS011;31160;49.500;7.772;2023-05-14T03:30:54;3.80;;;2.73;;
13793;SDS011;31160;49.500;7.772;2023-05-14T03:33:21;3.53;;;2.63;;
13793;SDS011;31160;49.500;7.772;2023-05-14T03:35:48;3.47;;;2.30;;
13793;SDS011;31160;49.500;7.772;2023-05-14T03:38:15;2.83;;;2.57;;
13793;SDS011;31160;49.500;7.772;2023-05-14T03:40:45;3.87;;;2.60;;
13793;SDS011;31160;49.500;7.772;2023-05-14T03:43:11;3.37;;;2.90;;
13793;SDS011;31160;49.500;7.772;2023-05-14T03:45:38;2.57;;;2.37;;
13793;SDS011;31160;49.500;7.772;2023-05-14T03:48:05;5.27;;;2.40;;
13793;SDS011;31160;49.500;7.772;2023-05-14T03:50:32;6.43;;;2.37;;
13793;SDS011;31160;49.500;7.772;2023-05-14T03:52:59;3.47;;;2.93;;
13793;SDS011;31160;49.500;7.772;2023-05-14T03:55:28;2.83;;;2.50;;
13793;SDS011;31160;49.500;7.772;2023-05-14T03:57:55;5.27;;;2.70;;
13793;SDS011;31160;49.500;7.772;2023-05-14T04:00:21;2.57;;;2.33;;
13793;SDS011;31160;49.500;7.772;2023-05-14T04:02:50;5.87;;;2.83;;
13793;SDS011;31160;49.500;7.772;2023-05-14T04:05:17;3.77;;;2.90;;
13793;SDS011;31160;49.500;7.772;2023-05-14T04:07:44;4.00;;;2.60;;
13793;SDS011;31160;49.500;7.772;2023-05-14T04:10:11;7.97;;;2.57;;
13793;SDS011;31160;49.500;7.772;2023-05-14T04:12:38;2.80;;;2.30;;
13793;SDS011;31160;49.500;7.772;2023-05-14T04:15:06;2.57;;;2.37;;
13793;SDS011;31160;49.500;7.772;2023-05-14T04:17:33;3.13;;;2.50;;
13793;SDS011;31160;49.500;7.772;2023-05-14T04:20:00;7.87;;;2.33;;
13793;SDS011;31160;49.500;7.772;2023-05-14T04:22:27;6.33;;;2.80;;
13793;SDS011;31160;49.500;7.772;2023-05-14T04:24:53;4.13;;;2.77;;
13793;SDS011;31160;49.500;7.772;2023-05-14T04:27:20;3.83;;;2.70;;
13793;SDS011;31160;49.500;7.772;2023-05-14T04:29:47;3.73;;;2.63;;
13793;SDS011;31160;49.500;7.772;2023-05-14T04:32:15;3.43;;;2.50;;
13793;SDS011;31160;49.500;7.772;2023-05-14T04:34:42;2.80;;;2.60;;
13793;SDS011;31160;49.500;7.772;2023-05-14T04:37:09;3.73;;;2.70;;
13793;SDS011;31160;49.500;7.772;2023-05-14T04:39:36;5.60;;;3.03;;
13793;SDS011;31160;49.500;7.772;2023-05-14T04:42:03;4.23;;;3.13;;
13793;SDS011;31160;49.500;7.772;2023-05-14T04:44:32;3.50;;;2.90;;
13793;SDS011;31160;49.500;7.772;2023-05-14T04:46:59;4.70;;;3.77;;
13793;SDS011;31160;49.500;7.772;2023-05-14T04:49:27;3.17;;;2.83;;
13793;SDS011;31160;49.500;7.772;2023-05-14T04:51:54;3.03;;;2.73;;
13793;SDS011;31160;49.500;7.772;2023-05-14T04:54:20;3.00;;;2.70;;
13793;SDS011;31160;49.500;7.772;2023-05-14T04:56:48;3.27;;;2.70;;
13793;SDS011;31160;49.500;7.772;2023-05-14T04:59:16;4.73;;;2.73;;
13793;SDS011;31160;49.500;7.772;2023-05-14T05:01:43;3.20;;;2.90;;
13793;SDS011;31160;49.500;7.772;2023-05-14T05:04:11;4.23;;;2.60;;
13793;SDS011;31160;49.500;7.772;2023-05-14T05:06:38;2.67;;;2.47;;
13793;SDS011;31160;49.500;7.772;2023-05-14T05:09:04;5.40;;;2.97;;
13793;SDS011;31160;49.500;7.772;2023-05-14T05:11:31;3.47;;;3.03;;
13793;SDS011;31160;49.500;7.772;2023-05-14T05:13:58;4.90;;;3.00;;
13793;SDS011;31160;49.500;7.772;2023-05-14T05:16:25;4.13;;;2.80;;
13793;SDS011;31160;49.500;7.772;2023-05-14T05:18:51;3.97;;;2.70;;
13793;SDS011;31160;49.500;7.772;2023-05-14T05:21:18;9.27;;;2.70;;
13793;SDS011;31160;49.500;7.772;2023-05-14T05:23:45;4.43;;;2.93;;
13793;SDS011;31160;49.500;7.772;2023-05-14T05:26:12;3.43;;;2.93;;
13793;SDS011;31160;49.500;7.772;2023-05-14T05:28:39;2.97;;;2.50;;
13793;SDS011;31160;49.500;7.772;2023-05-14T05:31:05;3.17;;;2.53;;
13793;SDS011;31160;49.500;7.772;2023-05-14T05:33:33;3.17;;;2.87;;
13793;SDS011;31160;49.500;7.772;2023-05-14T05:36:00;3.33;;;3.00;;
13793;SDS011;31160;49.500;7.772;2023-05-14T05:38:27;5.07;;;2.77;;
13793;SDS011;31160;49.500;7.772;2023-05-14T05:40:54;7.97;;;2.63;;
13793;SDS011;31160;49.500;7.772;2023-05-14T05:43:20;3.17;;;2.73;;
13793;SDS011;31160;49.500;7.772;2023-05-14T05:45:47;2.60;;;2.40;;
13793;SDS011;31160;49.500;7.772;2023-05-14T05:48:14;3.30;;;2.90;;
13793;SDS011;31160;49.500;7.772;2023-05-14T05:50:40;3.87;;;3.00;;
13793;SDS011;31160;49.500;7.772;2023-05-14T05:53:09;2.90;;;2.70;;
13793;SDS011;31160;49.500;7.772;2023-05-14T05:55:36;5.50;;;2.80;;
13793;SDS011;31160;49.500;7.772;2023-05-14T05:58:03;3.10;;;2.80;;
13793;SDS011;31160;49.500;7.772;2023-05-14T06:00:30;3.37;;;2.53;;
13793;SDS011;31160;49.500;7.772;2023-05-14T06:02:57;3.00;;;2.70;;
13793;SDS011;31160;49.500;7.772;2023-05-14T06:05:24;3.83;;;3.17;;
13793;SDS011;31160;49.500;7.772;2023-05-14T06:07:51;3.73;;;3.10;;
13793;SDS011;31160;49.500;7.772;2023-05-14T06:10:20;3.10;;;2.73;;
13793;SDS011;31160;49.500;7.772;2023-05-14T06:12:47;3.83;;;2.83;;
13793;SDS011;31160;49.500;7.772;2023-05-14T06:15:14;3.80;;;2.80;;
13793;SDS011;31160;49.500;7.772;2023-05-14T06:17:41;3.20;;;2.73;;
13793;SDS011;31160;49.500;7.772;2023-05-14T06:20:08;2.87;;;2.57;;
13793;SDS011;31160;49.500;7.772;2023-05-14T06:22:35;3.27;;;2.97;;
13793;SDS011;31160;49.500;7.772;2023-05-14T06:25:01;3.70;;;3.10;;
13793;SDS011;31160;49.500;7.772;2023-05-14T06:27:28;3.13;;;2.83;;
13793;SDS011;31160;49.500;7.772;2023-05-14T06:29:55;3.90;;;3.47;;
13793;SDS011;31160;49.500;7.772;2023-05-14T06:32:22;3.67;;;3.07;;
13793;SDS011;31160;49.500;7.772;2023-05-14T06:34:49;5.53;;;3.00;;
13793;SDS011;31160;49.500;7.772;2023-05-14T06:37:16;4.77;;;2.90;;
13793;SDS011;31160;49.500;7.772;2023-05-14T06:39:42;3.17;;;2.73;;
13793;SDS011;31160;49.500;7.772;2023-05-14T06:42:17;3.80;;;3.03;;
13793;SDS011;31160;49.500;7.772;2023-05-14T06:44:45;4.77;;;3.10;;
13793;SDS011;31160;49.500;7.772;2023-05-14T06:47:12;3.60;;;2.87;;
13793;SDS011;31160;49.500;7.772;2023-05-14T06:49:38;4.07;;;2.97;;
13793;SDS011;31160;49.500;7.772;2023-05-14T06:52:05;2.90;;;2.70;;
13793;SDS011;31160;49.500;7.772;2023-05-14T06:54:33;3.20;;;2.70;;
13793;SDS011;31160;49.500;7.772;2023-05-14T06:56:59;4.80;;;3.40;;
13793;SDS011;31160;49.500;7.772;2023-05-14T06:59:26;5.07;;;2.80;;
13793;SDS011;31160;49.500;7.772;2023-05-14T07:01:53;5.47;;;2.87;;
13793;SDS011;31160;49.500;7.772;2023-05-14T07:04:20;6.70;;;3.03;;
13793;SDS011;31160;49.500;7.772;2023-05-14T07:06:47;4.03;;;3.00;;
13793;SDS011;31160;49.500;7.772;2023-05-14T07:09:14;4.53;;;2.97;;
13793;SDS011;31160;49.500;7.772;2023-05-14T07:11:41;3.60;;;2.73;;
13793;SDS011;31160;49.500;7.772;2023-05-14T07:14:08;4.17;;;3.27;;
13793;SDS011;31160;49.500;7.772;2023-05-14T07:16:35;4.60;;;3.27;;
13793;SDS011;31160;49.500;7.772;2023-05-14T07:19:02;4.20;;;2.90;;
13793;SDS011;31160;49.500;7.772;2023-05-14T07:21:28;3.80;;;3.23;;
13793;SDS011;31160;49.500;7.772;2023-05-14T07:23:55;4.10;;;2.87;;
13793;SDS011;31160;49.500;7.772;2023-05-14T07:26:22;2.87;;;2.47;;
13793;SDS011;31160;49.500;7.772;2023-05-14T07:28:49;3.50;;;3.20;;
13793;SDS011;31160;49.500;7.772;2023-05-14T07:31:16;4.63;;;3.10;;
13793;SDS011;31160;49.500;7.772;2023-05-14T07:33:43;3.13;;;2.83;;
13793;SDS011;31160;49.500;7.772;2023-05-14T07:36:10;3.33;;;2.87;;
13793;SDS011;31160;49.500;7.772;2023-05-14T07:38:36;3.43;;;2.77;;
13793;SDS011;31160;49.500;7.772;2023-05-14T07:41:03;2.93;;;2.60;;
13793;SDS011;31160;49.500;7.772;2023-05-14T07:43:30;3.77;;;2.63;;
13793;SDS011;31160;49.500;7.772;2023-05-14T07:45:57;3.00;;;2.70;;
13793;SDS011;31160;49.500;7.772;2023-05-14T07:48:23;5.40;;;2.83;;
13793;SDS011;31160;49.500;7.772;2023-05-14T07:50:50;2.97;;;2.67;;
13793;SDS011;31160;49.500;7.772;2023-05-14T07:53:17;2.87;;;2.60;;
13793;SDS011;31160;49.500;7.772;2023-05-14T07:55:44;3.00;;;2.70;;
13793;SDS011;31160;49.500;7.772;2023-05-14T07:58:13;2.97;;;2.60;;
13793;SDS011;31160;49.500;7.772;2023-05-14T08:00:40;3.70;;;3.00;;
13793;SDS011;31160;49.500;7.772;2023-05-14T08:03:06;3.03;;;2.73;;
13793;SDS011;31160;49.500;7.772;2023-05-14T08:05:33;3.00;;;2.70;;
13793;SDS011;31160;49.500;7.772;2023-05-14T08:08:00;3.17;;;2.67;;
13793;SDS011;31160;49.500;7.772;2023-05-14T08:10:26;3.23;;;2.70;;
13793;SDS011;31160;49.500;7.772;2023-05-14T08:12:54;2.43;;;2.23;;
13793;SDS011;31160;49.500;7.772;2023-05-14T08:15:21;2.80;;;2.30;;
13793;SDS011;31160;49.500;7.772;2023-05-14T08:17:51;2.40;;;2.20;;
13793;SDS011;31160;49.500;7.772;2023-05-14T08:20:18;3.27;;;2.60;;
13793;SDS011;31160;49.500;7.772;2023-05-14T08:22:45;2.97;;;2.67;;
13793;SDS011;31160;49.500;7.772;2023-05-14T08:25:12;3.40;;;2.63;;
13793;SDS011;31160;49.500;7.772;2023-05-14T08:27:39;2.93;;;2.33;;
13793;SDS011;31160;49.500;7.772;2023-05-14T08:30:06;3.40;;;2.20;;
13793;SDS011;31160;49.500;7.772;2023-05-14T08:32:33;2.50;;;2.30;;
13793;SDS011;31160;49.500;7.772;2023-05-14T08:35:00;3.40;;;2.10;;
13793;SDS011;31160;49.500;7.772;2023-05-14T08:37:26;3.53;;;2.60;;
13793;SDS011;31160;49.500;7.772;2023-05-14T08:39:53;3.33;;;2.60;;
13793;SDS011;31160;49.500;7.772;2023-05-14T08:42:21;5.37;;;4.13;;
13793;SDS011;31160;49.500;7.772;2023-05-14T08:44:59;2.90;;;2.40;;
13793;SDS011;31160;49.500;7.772;2023-05-14T08:47:28;3.70;;;2.50;;
13793;SDS011;31160;49.500;7.772;2023-05-14T08:50:05;2.80;;;2.60;;
13793;SDS011;31160;49.500;7.772;2023-05-14T08:52:33;3.17;;;2.30;;
13793;SDS011;31160;49.500;7.772;2023-05-14T08:55:03;2.40;;;2.20;;
13793;SDS011;31160;49.500;7.772;2023-05-14T08:57:31;2.23;;;2.03;;
13793;SDS011;31160;49.500;7.772;2023-05-14T08:59:59;2.73;;;2.27;;
13793;SDS011;31160;49.500;7.772;2023-05-14T09:02:27;3.17;;;2.40;;
13793;SDS011;31160;49.500;7.772;2023-05-14T09:04:57;3.77;;;2.70;;
13793;SDS011;31160;49.500;7.772;2023-05-14T09:07:25;2.47;;;2.27;;
13793;SDS011;31160;49.500;7.772;2023-05-14T09:09:52;2.40;;;2.20;;
13793;SDS011;31160;49.500;7.772;2023-05-14T09:12:19;3.17;;;2.50;;
13793;SDS011;31160;49.500;7.772;2023-05-14T09:14:47;2.33;;;2.13;;
13793;SDS011;31160;49.500;7.772;2023-05-14T09:17:15;3.03;;;2.63;;
13793;SDS011;31160;49.500;7.772;2023-05-14T09:19:42;2.93;;;2.40;;
13793;SDS011;31160;49.500;7.772;2023-05-14T09:22:12;3.77;;;3.00;;
13793;SDS011;31160;49.500;7.772;2023-05-14T09:24:40;4.07;;;2.17;;
13793;SDS011;31160;49.500;7.772;2023-05-14T09:27:08;2.63;;;2.40;;
13793;SDS011;31160;49.500;7.772;2023-05-14T09:29:40;3.30;;;2.03;;
13793;SDS011;31160;49.500;7.772;2023-05-14T09:32:06;2.47;;;1.80;;
13793;SDS011;31160;49.500;7.772;2023-05-14T09:34:35;2.80;;;2.00;;
13793;SDS011;31160;49.500;7.772;2023-05-14T09:37:05;2.13;;;1.93;;
13793;SDS011;31160;49.500;7.772;2023-05-14T09:39:34;2.10;;;1.90;;
13793;SDS011;31160;49.500;7.772;2023-05-14T09:42:02;3.03;;;2.20;;
13793;SDS011;31160;49.500;7.772;2023-05-14T09:44:29;2.10;;;1.90;;
13793;SDS011;31160;49.500;7.772;2023-05-14T09:46:57;2.50;;;2.07;;
13793;SDS011;31160;49.500;7.772;2023-05-14T09:49:23;2.33;;;1.87;;
13793;SDS011;31160;49.500;7.772;2023-05-14T09:51:50;2.20;;;2.00;;
13793;SDS011;31160;49.500;7.772;2023-05-14T09:54:17;2.50;;;1.60;;
13793;SDS011;31160;49.500;7.772;2023-05-14T09:56:44;2.63;;;1.80;;
13793;SDS011;31160;49.500;7.772;2023-05-14T09:59:10;3.40;;;1.70;;
13793;SDS011;31160;49.500;7.772;2023-05-14T10:01:37;1.87;;;1.60;;
13793;SDS011;31160;49.500;7.772;2023-05-14T10:04:08;2.17;;;1.70;;
13793;SDS011;31160;49.500;7.772;2023-05-14T10:06:36;2.97;;;2.10;;
13793;SDS011;31160;49.500;7.772;2023-05-14T10:09:06;2.73;;;2.00;;
13793;SDS011;31160;49.500;7.772;2023-05-14T10:11:41;2.00;;;1.80;;
13793;SDS011;31160;49.500;7.772;2023-05-14T10:16:50;1.70;;;1.47;;
13793;SDS011;31160;49.500;7.772;2023-05-14T10:19:19;3.00;;;1.50;;
13793;SDS011;31160;49.500;7.772;2023-05-14T10:21:52;2.13;;;1.80;;
13793;SDS011;31160;49.500;7.772;2023-05-14T10:24:22;2.43;;;1.70;;
13793;SDS011;31160;49.500;7.772;2023-05-14T10:26:49;2.40;;;1.90;;
13793;SDS011;31160;49.500;7.772;2023-05-14T10:29:17;2.17;;;1.70;;
13793;SDS011;31160;49.500;7.772;2023-05-14T10:34:37;6.03;;;2.00;;
13793;SDS011;31160;49.500;7.772;2023-05-14T10:37:22;2.17;;;1.73;;
13793;SDS011;31160;49.500;7.772;2023-05-14T10:44:59;2.10;;;1.83;;
13793;SDS011;31160;49.500;7.772;2023-05-14T10:47:33;3.77;;;1.80;;
13793;SDS011;31160;49.500;7.772;2023-05-14T10:50:02;2.07;;;1.77;;
13793;SDS011;31160;49.500;7.772;2023-05-14T10:52:32;2.53;;;1.40;;
13793;SDS011;31160;49.500;7.772;2023-05-14T10:55:01;3.10;;;1.90;;
13793;SDS011;31160;49.500;7.772;2023-05-14T10:57:30;2.10;;;1.60;;
13793;SDS011;31160;49.500;7.772;2023-05-14T10:59:58;1.83;;;1.63;;
13793;SDS011;31160;49.500;7.772;2023-05-14T11:02:27;2.10;;;1.30;;
13793;SDS011;31160;49.500;7.772;2023-05-14T11:07:39;2.70;;;1.80;;
13793;SDS011;31160;49.500;7.772;2023-05-14T11:10:26;2.00;;;1.80;;
13793;SDS011;31160;49.500;7.772;2023-05-14T11:12:55;2.20;;;1.70;;
13793;SDS011;31160;49.500;7.772;2023-05-14T11:15:23;2.10;;;1.80;;
13793;SDS011;31160;49.500;7.772;2023-05-14T11:17:52;2.43;;;1.67;;
13793;SDS011;31160;49.500;7.772;2023-05-14T11:20:19;3.97;;;1.70;;
13793;SDS011;31160;49.500;7.772;2023-05-14T11:22:47;1.97;;;1.60;;
13793;SDS011;31160;49.500;7.772;2023-05-14T11:25:14;1.70;;;1.60;;
13793;SDS011;31160;49.500;7.772;2023-05-14T11:27:43;3.20;;;1.60;;
13793;SDS011;31160;49.500;7.772;2023-05-14T11:32:42;2.47;;;1.70;;
13793;SDS011;31160;49.500;7.772;2023-05-14T11:35:14;1.63;;;1.50;;
13793;SDS011;31160;49.500;7.772;2023-05-14T11:37:41;2.60;;;1.90;;
13793;SDS011;31160;49.500;7.772;2023-05-14T11:40:13;3.70;;;1.77;;
13793;SDS011;31160;49.500;7.772;2023-05-14T11:42:41;1.60;;;1.50;;
13793;SDS011;31160;49.500;7.772;2023-05-14T11:45:11;3.13;;;1.70;;
13793;SDS011;31160;49.500;7.772;2023-05-14T11:47:41;2.07;;;1.50;;
13793;SDS011;31160;49.500;7.772;2023-05-14T11:50:08;4.70;;;1.60;;
13793;SDS011;31160;49.500;7.772;2023-05-14T11:52:37;1.33;;;1.23;;
13793;SDS011;31160;49.500;7.772;2023-05-14T11:55:09;4.70;;;1.60;;
13793;SDS011;31160;49.500;7.772;2023-05-14T11:57:36;3.07;;;1.80;;
13793;SDS011;31160;49.500;7.772;2023-05-14T12:00:06;2.43;;;1.57;;
13793;SDS011;31160;49.500;7.772;2023-05-14T12:02:42;2.13;;;1.40;;
13793;SDS011;31160;49.500;7.772;2023-05-14T12:05:11;2.30;;;1.80;;
13793;SDS011;31160;49.500;7.772;2023-05-14T12:07:38;1.50;;;1.33;;
13793;SDS011;31160;49.500;7.772;2023-05-14T12:10:04;2.17;;;1.33;;
13793;SDS011;31160;49.500;7.772;2023-05-14T12:12:35;2.20;;;1.60;;
13793;SDS011;31160;49.500;7.772;2023-05-14T12:15:09;2.20;;;1.40;;
13793;SDS011;31160;49.500;7.772;2023-05-14T12:17:40;1.73;;;1.63;;
13793;SDS011;31160;49.500;7.772;2023-05-14T12:20:07;1.83;;;1.63;;
13793;SDS011;31160;49.500;7.772;2023-05-14T12:22:35;1.90;;;1.37;;
13793;SDS011;31160;49.500;7.772;2023-05-14T12:25:02;1.93;;;1.70;;
13793;SDS011;31160;49.500;7.772;2023-05-14T12:27:29;2.03;;;1.60;;
13793;SDS011;31160;49.500;7.772;2023-05-14T12:29:59;2.33;;;1.20;;
13793;SDS011;31160;49.500;7.772;2023-05-14T12:32:34;2.50;;;1.60;;
13793;SDS011;31160;49.500;7.772;2023-05-14T12:35:01;6.30;;;1.80;;
13793;SDS011;31160;49.500;7.772;2023-05-14T12:37:28;1.90;;;1.70;;
13793;SDS011;31160;49.500;7.772;2023-05-14T12:39:56;1.60;;;1.50;;
13793;SDS011;31160;49.500;7.772;2023-05-14T12:42:23;2.23;;;1.37;;
13793;SDS011;31160;49.500;7.772;2023-05-14T12:44:49;1.60;;;1.50;;
13793;SDS011;31160;49.500;7.772;2023-05-14T12:47:16;3.17;;;2.10;;
13793;SDS011;31160;49.500;7.772;2023-05-14T12:49:43;1.70;;;1.43;;
13793;SDS011;31160;49.500;7.772;2023-05-14T12:52:10;1.50;;;1.40;;
13793;SDS011;31160;49.500;7.772;2023-05-14T12:54:40;2.90;;;1.80;;
13793;SDS011;31160;49.500;7.772;2023-05-14T12:57:08;1.93;;;1.40;;
13793;SDS011;31160;49.500;7.772;2023-05-14T12:59:35;4.17;;;1.40;;
13793;SDS011;31160;49.500;7.772;2023-05-14T13:02:02;1.77;;;1.60;;
13793;SDS011;31160;49.500;7.772;2023-05-14T13:04:28;5.10;;;1.53;;
13793;SDS011;31160;49.500;7.772;2023-05-14T13:06:55;2.33;;;1.60;;
13793;SDS011;31160;49.500;7.772;2023-05-14T13:09:22;2.67;;;1.97;;
13793;SDS011;31160;49.500;7.772;2023-05-14T13:11:49;2.00;;;1.77;;
13793;SDS011;31160;49.500;7.772;2023-05-14T13:14:15;1.93;;;1.63;;
13793;SDS011;31160;49.500;7.772;2023-05-14T13:16:45;2.10;;;1.80;;
13793;SDS011;31160;49.500;7.772;2023-05-14T13:19:12;2.77;;;1.67;;
13793;SDS011;31160;49.500;7.772;2023-05-14T13:21:38;2.07;;;1.60;;
13793;SDS011;31160;49.500;7.772;2023-05-14T13:24:05;3.73;;;1.93;;
13793;SDS011;31160;49.500;7.772;2023-05-14T13:26:32;2.77;;;1.90;;
13793;SDS011;31160;49.500;7.772;2023-05-14T13:28:59;3.03;;;1.80;;
13793;SDS011;31160;49.500;7.772;2023-05-14T13:31:26;2.40;;;2.00;;
13793;SDS011;31160;49.500;7.772;2023-05-14T13:33:53;4.00;;;1.80;;
13793;SDS011;31160;49.500;7.772;2023-05-14T13:36:19;1.40;;;1.30;;
13793;SDS011;31160;49.500;7.772;2023-05-14T13:38:46;2.70;;;2.00;;
13793;SDS011;31160;49.500;7.772;2023-05-14T13:41:13;2.80;;;2.27;;
13793;SDS011;31160;49.500;7.772;2023-05-14T13:43:40;2.07;;;1.73;;
13793;SDS011;31160;49.500;7.772;2023-05-14T13:46:06;2.57;;;2.10;;
13793;SDS011;31160;49.500;7.772;2023-05-14T13:48:33;2.60;;;1.90;;
13793;SDS011;31160;49.500;7.772;2023-05-14T13:51:02;3.43;;;1.60;;
13793;SDS011;31160;49.500;7.772;2023-05-14T13:53:29;1.87;;;1.77;;
13793;SDS011;31160;49.500;7.772;2023-05-14T13:55:55;2.17;;;1.67;;
13793;SDS011;31160;49.500;7.772;2023-05-14T13:58:24;2.03;;;1.50;;
13793;SDS011;31160;49.500;7.772;2023-05-14T14:00:51;1.77;;;1.60;;
13793;SDS011;31160;49.500;7.772;2023-05-14T14:03:18;1.63;;;1.40;;
13793;SDS011;31160;49.500;7.772;2023-05-14T14:05:45;1.77;;;1.40;;
13793;SDS011;31160;49.500;7.772;2023-05-14T14:08:12;2.33;;;1.43;;
13793;SDS011;31160;49.500;7.772;2023-05-14T14:10:47;1.97;;;1.37;;
13793;SDS011;31160;49.500;7.772;2023-05-14T14:13:13;2.33;;;1.70;;
13793;SDS011;31160;49.500;7.772;2023-05-14T14:15:40;2.43;;;1.67;;
13793;SDS011;31160;49.500;7.772;2023-05-14T14:18:07;1.40;;;1.30;;
13793;SDS011;31160;49.500;7.772;2023-05-14T14:20:34;3.57;;;1.50;;
13793;SDS011;31160;49.500;7.772;2023-05-14T14:23:01;1.43;;;1.30;;
13793;SDS011;31160;49.500;7.772;2023-05-14T14:25:28;1.40;;;1.30;;
13793;SDS011;31160;49.500;7.772;2023-05-14T14:27:54;1.60;;;1.30;;
13793;SDS011;31160;49.500;7.772;2023-05-14T14:30:21;1.50;;;1.40;;
13793;SDS011;31160;49.500;7.772;2023-05-14T14:32:48;2.00;;;1.37;;
13793;SDS011;31160;49.500;7.772;2023-05-14T14:35:16;1.70;;;1.37;;
13793;SDS011;31160;49.500;7.772;2023-05-14T14:37:44;1.70;;;1.60;;
13793;SDS011;31160;49.500;7.772;2023-05-14T14:40:14;1.63;;;1.53;;
13793;SDS011;31160;49.500;7.772;2023-05-14T14:42:42;2.33;;;1.63;;
13793;SDS011;31160;49.500;7.772;2023-05-14T14:45:09;5.20;;;1.80;;
13793;SDS011;31160;49.500;7.772;2023-05-14T14:47:36;1.80;;;1.30;;
13793;SDS011;31160;49.500;7.772;2023-05-14T14:50:03;2.00;;;1.50;;
13793;SDS011;31160;49.500;7.772;2023-05-14T14:52:31;4.00;;;1.40;;
13793;SDS011;31160;49.500;7.772;2023-05-14T14:54:57;1.60;;;1.40;;
13793;SDS011;31160;49.500;7.772;2023-05-14T14:57:24;3.27;;;1.20;;
13793;SDS011;31160;49.500;7.772;2023-05-14T14:59:51;1.30;;;1.00;;
13793;SDS011;31160;49.500;7.772;2023-05-14T15:02:18;1.00;;;0.90;;
13793;SDS011;31160;49.500;7.772;2023-05-14T15:04:45;2.33;;;0.70;;
13793;SDS011;31160;49.500;7.772;2023-05-14T15:07:12;1.83;;;0.90;;
13793;SDS011;31160;49.500;7.772;2023-05-14T15:09:41;2.70;;;0.90;;
13793;SDS011;31160;49.500;7.772;2023-05-14T15:12:08;1.50;;;1.00;;